Huvudsida
METAR-TAF:

METAR-TAF

Flygplatser :

Visby Airport

Visby, Gotland, Sverige

latitud: 57-40N, longitud: 018-21E, höjd: 51 m

Aktuellt väderrapport

Denna rapport gjordes för 12 minuter sedan, klockan 19:20 UTC
Vind 4 kt från nord
Temperatur 15°C
Fuktighet 63%
Tryck 1018 hPa
Sikt 10 km eller mer
Inga moln under 1 500 m eller inga cumulonimbus

METAR: ESSV 251920Z 36004KT CAVOK 15/08 Q1018

Tid: 21:32 (19:32 UTC)

Väderprognos

Denna rapport gjordes för 2 timmar och 2 minuter sedan, klockan 17:30 UTC
Prognos gäller från 25 kl. 18 UTC till 25 kl. 22 UTC
Vind 8 kt från nord
Sikt 10 km eller mer
Inga moln under 1 500 m eller inga cumulonimbus

TAF: ESSV 251730Z 2518/2522 01008KT CAVOK

Aktuella väderrapporter och prognoser från 4000 flygplatser (METAR- och TAF-rapporter).

De tillgängliga stationerna syns som gula och röda prickar på kartan.

För musen över prickarna för att se namnen på stationerna.

Klicka sedan för att få väderrapporter och prognoser.

För att ändra kartan: Klicka på de gröna knapparna med ett svart kors på för att zooma in; den gröna knappen med ett streck på för att zooma ut; eller på de gröna pilarna för angränsande kartor.


METAR-TAF: